createdAt,value
2023-01-31T00:01:53.117Z,0.70
2023-01-31T00:07:00.935Z,0.59
2023-01-31T00:12:09.051Z,0.54
2023-01-31T00:17:17.037Z,0.53
2023-01-31T00:22:24.835Z,0.52
2023-01-31T00:27:32.510Z,0.49
2023-01-31T00:32:39.957Z,0.49
2023-01-31T00:37:47.841Z,0.52
2023-01-31T00:42:55.487Z,0.55
2023-01-31T00:48:03.141Z,0.55
2023-01-31T00:53:10.871Z,0.56
2023-01-31T00:58:19.414Z,0.57
2023-01-31T01:03:27.171Z,0.55
2023-01-31T01:08:37.167Z,0.55
2023-01-31T01:13:45.451Z,0.51
2023-01-31T01:18:55.591Z,0.45
2023-01-31T01:24:04.537Z,0.38
2023-01-31T01:29:16.905Z,0.33
2023-01-31T01:34:24.609Z,0.29
2023-01-31T01:39:32.344Z,0.29
2023-01-31T01:44:52.472Z,0.30
2023-01-31T01:50:04.285Z,0.33
2023-01-31T01:55:19.986Z,0.35
2023-01-31T02:00:30.205Z,0.37
2023-01-31T02:05:44.039Z,0.36
2023-01-31T02:10:57.400Z,0.39
2023-01-31T02:16:05.323Z,0.43
2023-01-31T02:21:51.436Z,0.45
2023-01-31T02:27:31.177Z,0.50
2023-01-31T02:33:04.076Z,0.59
2023-01-31T02:38:26.599Z,0.66
2023-01-31T02:44:10.921Z,0.75
2023-01-31T02:49:35.759Z,0.83
2023-01-31T02:55:03.516Z,0.86
2023-01-31T03:00:15.006Z,0.89
2023-01-31T03:05:23.747Z,0.93
2023-01-31T03:10:46.155Z,0.95
2023-01-31T03:19:14.331Z,0.99
2023-01-31T03:24:26.897Z,0.99
2023-01-31T03:29:39.591Z,0.95
2023-01-31T03:34:48.325Z,0.91
2023-01-31T03:40:01.584Z,0.88
2023-01-31T03:55:04.639Z,0.89
2023-01-31T04:00:16.889Z,0.86
2023-01-31T04:05:30.722Z,0.88
2023-01-31T04:10:38.740Z,0.92
2023-01-31T04:15:46.268Z,0.91
2023-01-31T04:20:53.552Z,0.88
2023-01-31T04:26:01.167Z,0.88
2023-01-31T04:31:09.657Z,0.87
2023-01-31T04:36:17.289Z,0.85
2023-01-31T04:41:24.723Z,0.79
2023-01-31T04:46:34.702Z,0.71
2023-01-31T04:51:42.502Z,0.66
2023-01-31T04:56:49.914Z,0.62
2023-01-31T05:01:55.478Z,0.60
2023-01-31T05:07:02.782Z,0.57
2023-01-31T05:12:12.023Z,0.57
2023-01-31T05:17:26.591Z,0.56
2023-01-31T05:22:34.229Z,0.53
2023-01-31T05:27:41.958Z,0.53
2023-01-31T05:32:49.983Z,0.54
2023-01-31T05:37:58.912Z,0.54
2023-01-31T05:43:06.592Z,0.56
2023-01-31T05:48:14.327Z,0.59
2023-01-31T05:53:22.957Z,0.60
2023-01-31T05:58:30.879Z,0.61
2023-01-31T06:03:39.104Z,0.62
2023-01-31T06:08:46.808Z,0.62
2023-01-31T06:13:58.511Z,0.62
2023-01-31T06:19:07.228Z,0.64
2023-01-31T06:24:14.337Z,0.66
2023-01-31T06:29:19.841Z,0.67
2023-01-31T06:34:27.165Z,0.65
2023-01-31T06:39:34.286Z,0.66
2023-01-31T06:44:42.861Z,0.68
2023-01-31T06:49:50.165Z,0.66
2023-01-31T06:54:58.094Z,0.65
2023-01-31T07:00:06.955Z,0.65
2023-01-31T07:05:14.374Z,0.62
2023-01-31T07:10:22.169Z,0.59
2023-01-31T07:15:30.306Z,0.61
2023-01-31T07:20:37.708Z,0.64
2023-01-31T07:25:45.093Z,0.65
2023-01-31T07:30:52.425Z,0.66
2023-01-31T07:35:59.990Z,0.71
2023-01-31T07:41:09.003Z,0.73
2023-01-31T07:46:17.070Z,0.74
2023-01-31T07:51:24.382Z,0.74
2023-01-31T07:56:32.251Z,0.76
2023-01-31T08:01:57.241Z,0.76
2023-01-31T08:07:07.413Z,0.74
2023-01-31T08:12:14.846Z,0.76
2023-01-31T08:17:23.164Z,0.78
2023-01-31T08:22:30.539Z,0.81
2023-01-31T08:27:38.051Z,0.84
2023-01-31T08:32:45.921Z,0.88
2023-01-31T08:37:55.342Z,0.89
2023-01-31T08:43:05.800Z,0.90
2023-01-31T08:48:12.651Z,0.94
2023-01-31T08:53:19.684Z,0.95
2023-01-31T08:58:27.144Z,0.92
2023-01-31T09:03:34.442Z,0.87
2023-01-31T09:08:41.500Z,0.87
2023-01-31T09:13:51.792Z,0.86
2023-01-31T09:18:59.322Z,0.87
2023-01-31T09:24:07.620Z,0.91
2023-01-31T09:29:17.529Z,0.96
2023-01-31T09:34:25.249Z,1.01
2023-01-31T09:39:32.971Z,1.05
2023-01-31T09:44:45.445Z,1.08
2023-01-31T09:49:57.703Z,1.12
2023-01-31T09:55:05.068Z,1.16
2023-01-31T10:00:24.287Z,1.17
2023-01-31T10:05:39.717Z,1.17
2023-01-31T10:10:52.476Z,1.13
2023-01-31T10:16:04.838Z,1.02
2023-01-31T10:21:16.363Z,0.97
2023-01-31T10:26:29.266Z,0.94
2023-01-31T10:31:44.197Z,0.92
2023-01-31T10:36:57.675Z,0.93
2023-01-31T10:42:19.573Z,1.03
2023-01-31T10:47:33.126Z,1.10
2023-01-31T10:53:05.118Z,1.08
2023-01-31T10:58:18.807Z,1.02
2023-01-31T11:03:26.321Z,0.93
2023-01-31T11:08:41.937Z,0.85
2023-01-31T11:14:01.046Z,0.84
2023-01-31T11:19:21.104Z,0.91
2023-01-31T11:24:31.300Z,0.97
2023-01-31T11:29:43.575Z,1.00
2023-01-31T11:35:01.177Z,1.03
2023-01-31T11:40:28.205Z,1.04
2023-01-31T11:45:39.103Z,1.00
2023-01-31T11:50:52.407Z,0.98
2023-01-31T11:56:10.239Z,0.95
2023-01-31T12:01:22.054Z,0.98
2023-01-31T12:06:36.217Z,0.97
2023-01-31T12:11:54.344Z,0.93
2023-01-31T12:17:04.438Z,0.88
2023-01-31T12:22:20.032Z,0.91
2023-01-31T12:27:41.907Z,1.00
2023-01-31T12:33:01.092Z,1.04
2023-01-31T12:38:19.649Z,1.08
2023-01-31T12:43:57.555Z,1.12
2023-01-31T12:49:16.748Z,1.18
2023-01-31T12:54:42.513Z,1.27
2023-01-31T13:00:05.991Z,1.35
2023-01-31T13:05:28.488Z,1.42
2023-01-31T13:10:42.293Z,1.50
2023-01-31T13:15:54.906Z,1.60
2023-01-31T13:21:06.555Z,1.62
2023-01-31T13:26:18.883Z,1.61
2023-01-31T13:31:29.564Z,1.62
2023-01-31T13:36:43.122Z,1.64
2023-01-31T13:41:51.362Z,1.60
2023-01-31T13:47:05.037Z,1.54
2023-01-31T13:52:18.885Z,1.46
2023-01-31T13:57:28.705Z,1.35
2023-01-31T14:02:36.255Z,1.27
2023-01-31T14:07:43.910Z,1.27
2023-01-31T14:13:11.361Z,1.28
2023-01-31T14:18:38.921Z,1.28
2023-01-31T14:23:49.704Z,1.29
2023-01-31T14:28:56.830Z,1.28
2023-01-31T14:34:03.634Z,1.26
2023-01-31T14:39:42.704Z,1.22
2023-01-31T14:45:03.941Z,1.18
2023-01-31T14:50:25.551Z,1.15
2023-01-31T14:55:58.352Z,1.15
2023-01-31T15:01:10.089Z,1.15
2023-01-31T15:06:24.703Z,1.18
2023-01-31T15:11:43.731Z,1.19
2023-01-31T15:16:59.479Z,1.16
2023-01-31T15:22:12.463Z,1.13
2023-01-31T15:27:24.505Z,1.07
2023-01-31T15:32:40.772Z,1.01
2023-01-31T15:37:55.813Z,1.00
2023-01-31T15:43:22.921Z,0.92
2023-01-31T15:48:30.316Z,0.85
2023-01-31T15:53:37.734Z,0.81
2023-01-31T15:58:49.951Z,0.77
2023-01-31T16:04:00.228Z,0.72
2023-01-31T16:09:23.948Z,0.65
2023-01-31T16:14:31.940Z,0.59
2023-01-31T16:19:39.375Z,0.55
2023-01-31T16:24:59.100Z,0.52
2023-01-31T16:30:08.921Z,0.47
2023-01-31T16:35:25.212Z,0.41
2023-01-31T16:40:35.824Z,0.33
2023-01-31T16:45:54.301Z,0.28
2023-01-31T16:51:22.869Z,0.23
2023-01-31T16:56:30.066Z,0.20
2023-01-31T17:01:36.174Z,0.17
2023-01-31T17:06:46.583Z,0.14
2023-01-31T17:11:56.913Z,0.12
2023-01-31T17:20:58.907Z,0.13
2023-01-31T17:26:06.622Z,0.12
2023-01-31T17:31:21.326Z,0.14
2023-01-31T17:36:28.973Z,0.16
2023-01-31T17:41:36.507Z,0.15
2023-01-31T17:46:44.687Z,0.16
2023-01-31T17:51:53.033Z,0.20
2023-01-31T17:57:01.485Z,0.22
2023-01-31T18:02:08.974Z,0.23
2023-01-31T18:07:19.801Z,0.26
2023-01-31T18:12:30.419Z,0.31
2023-01-31T18:17:38.062Z,0.34
2023-01-31T18:22:46.598Z,0.38
2023-01-31T18:27:54.170Z,0.41
2023-01-31T18:33:01.776Z,0.41
2023-01-31T18:38:09.640Z,0.42
2023-01-31T18:43:17.572Z,0.45
2023-01-31T18:48:25.189Z,0.48
2023-01-31T18:53:35.372Z,0.50
2023-01-31T18:58:46.560Z,0.50
2023-01-31T19:03:55.552Z,0.50
2023-01-31T19:09:04.239Z,0.54
2023-01-31T19:14:16.185Z,0.55
2023-01-31T19:19:23.845Z,0.54
2023-01-31T19:24:31.482Z,0.53
2023-01-31T19:29:40.320Z,0.53
2023-01-31T19:34:48.044Z,0.54
2023-01-31T19:39:55.441Z,0.55
2023-01-31T19:45:02.957Z,0.54
2023-01-31T19:50:13.052Z,0.57
2023-01-31T19:55:20.661Z,0.60
2023-01-31T20:00:28.523Z,0.62
2023-01-31T20:05:36.913Z,0.64
2023-01-31T20:10:44.677Z,0.66
2023-01-31T20:16:00.284Z,0.71
2023-01-31T20:21:09.323Z,0.74
2023-01-31T20:26:20.943Z,0.75
2023-01-31T20:31:28.430Z,0.79
2023-01-31T20:36:36.335Z,0.81
2023-01-31T20:41:44.468Z,0.84
2023-01-31T20:46:51.622Z,0.88
2023-01-31T20:51:57.505Z,0.91
2023-01-31T20:57:05.041Z,0.94
2023-01-31T21:02:14.677Z,0.97
2023-01-31T21:07:22.119Z,1.02
2023-01-31T21:12:29.576Z,1.05
2023-01-31T21:17:40.449Z,1.10
2023-01-31T21:22:49.334Z,1.14
2023-01-31T21:27:56.937Z,1.14
2023-01-31T21:33:04.955Z,1.14
2023-01-31T21:38:13.089Z,1.15
2023-01-31T21:43:21.940Z,1.14
2023-01-31T21:48:32.445Z,1.15
2023-01-31T21:53:41.094Z,1.15
2023-01-31T21:58:50.177Z,1.15
2023-01-31T22:03:59.646Z,1.17
2023-01-31T22:09:08.987Z,1.19
2023-01-31T22:14:18.225Z,1.20
2023-01-31T22:19:25.741Z,1.23
2023-01-31T22:24:34.887Z,1.24
2023-01-31T22:29:43.424Z,1.26
2023-01-31T22:34:51.331Z,1.29
2023-01-31T22:39:59.686Z,1.30
2023-01-31T22:45:09.027Z,1.33
2023-01-31T22:50:17.614Z,1.36
2023-01-31T22:55:27.726Z,1.38
2023-01-31T23:00:35.765Z,1.37
2023-01-31T23:05:45.229Z,1.35
2023-01-31T23:10:52.885Z,1.30
2023-01-31T23:16:00.598Z,1.27
2023-01-31T23:21:14.616Z,1.23
2023-01-31T23:26:22.317Z,1.16
2023-01-31T23:31:29.977Z,1.11
2023-01-31T23:36:37.502Z,1.07
2023-01-31T23:41:44.785Z,1.04
2023-01-31T23:46:53.164Z,1.03
2023-01-31T23:52:00.701Z,1.07
2023-01-31T23:57:08.293Z,1.10
